Latest Weather Observations for Smithton

IDT60801

Issued at 8:35 pm EST Wednesday 30 July 2014 (issued every 30 minutes, with the page automatically refreshed every 10 minutes)

About weather observations | Map of weather stations | Latest weather observations for TAS | Other Formats
Station Details ID: 091292 Name: SMITHTON AERODROME Lat: -40.83 Lon: 145.08 Height: 7.5 m
Data from the previous 72 hours. | See also: Recent months at Smithton
Date/Time
EST
Temp
°C
App
Temp
°C
Dew
Point
Rel
Hum
%
Delta-T
°C
Wind Press
QNH
hPa
Press
MSL
hPa
Rain
since 9 am
mm
Dir
 
Spd
km/h
Gust
km/h
Spd
kts
Gust
kts
30/08:32pm 13.4 5.4 10.4 82 1.6 WNW 43 61 23 33 999.9 - 2.6
30/08:30pm 13.7 5.5 10.3 80 1.8 WNW 44 61 24 33 999.9 - 2.6
30/08:18pm 13.4 6.1 10.2 81 1.7 WNW 39 57 21 31 1000.0 - 2.6
30/08:00pm 13.7 5.0 9.9 78 2.0 WNW 46 59 25 32 1000.1 - 2.6
30/07:33pm 13.8 7.0 10.6 81 1.7 WNW 37 56 20 30 1000.3 - 2.6
30/07:30pm 13.8 6.6 10.6 81 1.7 WNW 39 56 21 30 1000.3 - 2.6
30/07:00pm 13.0 6.3 10.9 87 1.1 WNW 37 48 20 26 1000.3 - 2.6
30/06:30pm 12.7 4.4 11.4 92 0.7 WNW 46 59 25 32 1000.6 - 2.6
30/06:20pm 12.9 2.6 11.6 92 0.7 WNW 57 80 31 43 1000.6 - 2.6
30/06:18pm 12.9 2.6 11.8 93 0.6 WNW 57 65 31 35 1000.7 - 2.4
30/06:13pm 13.3 7.2 11.7 90 0.9 NW 35 61 19 33 1000.5 - 1.8
30/06:00pm 13.5 7.3 11.4 87 1.1 NW 35 48 19 26 1000.4 1000.4 1.2
30/05:30pm 14.0 6.8 10.6 80 1.8 WNW 39 57 21 31 1000.7 - 1.2
30/05:00pm 14.1 6.6 10.7 80 1.8 WNW 41 59 22 32 1000.6 - 1.2
30/04:45pm 14.1 7.8 11.1 82 1.6 WNW 35 54 19 29 1000.7 - 1.2
30/04:30pm 14.3 6.2 10.9 80 1.8 WNW 44 61 24 33 1000.8 - 1.2
30/04:00pm 14.3 5.2 11.3 82 1.6 WNW 50 74 27 40 1000.7 - 1.2
30/03:30pm 14.0 7.2 12.0 88 1.1 WNW 39 57 21 31 1000.5 - 1.2
30/03:05pm 14.0 5.7 11.5 85 1.3 WNW 46 65 25 35 1000.7 - 0.6
30/03:00pm 14.5 6.5 11.1 80 1.8 WNW 44 61 24 33 1000.8 1000.8 0.6
30/02:34pm 15.0 6.5 10.8 76 2.2 WNW 46 65 25 35 1000.8 - 0.6
30/02:30pm 15.0 6.2 10.8 76 2.2 WNW 48 61 26 33 1000.9 - 0.6
30/02:00pm 15.0 5.5 11.0 77 2.1 WNW 52 74 28 40 1000.8 - 0.6
30/01:30pm 14.1 6.2 11.4 84 1.4 WNW 44 69 24 37 1001.3 - 0.6
30/01:00pm 13.2 5.5 12.1 93 0.6 WNW 44 63 24 34 1001.7 - 0.4
30/12:46pm 13.4 6.9 11.6 89 1.0 WNW 37 56 20 30 1001.7 - 0.2
30/12:30pm 13.1 6.9 11.3 89 1.0 WNW 35 48 19 26 1002.1 - 0.0
30/12:00pm 13.8 6.4 10.0 78 2.0 WNW 39 50 21 27 1002.8 1002.8 0.0
30/11:37am 14.2 7.6 10.0 76 2.2 WNW 35 56 19 30 1003.1 - 0.0
30/11:30am 14.2 6.8 10.0 76 2.2 WNW 39 50 21 27 1003.3 - 0.0
30/11:00am 13.8 6.5 10.2 79 1.9 WNW 39 57 21 31 1003.8 - 0.0
30/10:34am 13.7 7.1 9.9 78 2.0 WNW 35 54 19 29 1003.9 - 0.0
30/10:30am 13.5 7.6 10.3 81 1.7 WNW 32 43 17 23 1004.0 - 0.0
30/10:00am 13.6 6.5 9.6 77 2.0 WNW 37 50 20 27 1004.1 - 0.0
30/09:37am 13.4 7.0 9.5 77 2.0 WNW 33 52 18 28 1003.9 - 0.0
30/09:30am 13.2 6.9 9.6 79 1.8 WNW 33 43 18 23 1004.2 - 0.0
30/09:00am 13.1 7.2 9.0 76 2.1 WNW 30 44 16 24 1003.8 1003.8 5.8
30/08:30am 12.8 6.3 8.9 77 2.0 WNW 33 46 18 25 1003.9 - 5.8
30/08:00am 12.2 7.5 9.2 82 1.5 WNW 24 33 13 18 1003.5 - 5.8
30/07:30am 12.1 6.3 9.3 83 1.4 WNW 30 39 16 21 1003.6 - 5.8
30/07:00am 12.1 5.8 9.1 82 1.5 WNW 32 39 17 21 1003.2 - 5.8
30/06:30am 12.4 7.1 8.5 77 1.9 WNW 26 35 14 19 1003.1 - 5.8
30/06:00am 12.1 6.2 7.6 74 2.2 WNW 28 44 15 24 1003.3 1003.3 5.8
30/05:30am 12.0 6.4 7.3 73 2.3 W 26 41 14 22 1003.3 - 5.8
30/05:00am 11.6 5.6 6.9 73 2.2 W 28 37 15 20 1003.2 - 5.8
30/04:30am 11.4 5.5 7.3 76 2.0 W 28 39 15 21 1003.0 - 5.8
30/04:06am 12.0 5.0 6.9 71 2.4 W 33 54 18 29 1003.2 - 5.8
30/04:00am 11.6 4.6 6.9 73 2.2 W 33 48 18 26 1003.2 - 5.8
30/03:36am 11.9 3.8 7.0 72 2.3 W 39 57 21 31 1003.2 - 5.8
30/03:30am 11.7 4.3 6.6 71 2.4 W 35 52 19 28 1003.1 - 5.8
30/03:22am 11.9 5.0 6.4 69 2.6 W 32 52 17 28 1003.0 - 5.8
30/03:00am 11.7 4.1 6.0 68 2.7 W 35 50 19 27 1003.0 1003.0 5.8
30/02:40am 11.8 3.9 6.1 68 2.7 W 37 56 20 30 1002.9 - 5.8
30/02:30am 11.8 3.5 6.1 68 2.7 W 39 54 21 29 1002.9 - 5.8
30/02:00am 11.8 2.8 6.3 69 2.6 W 43 63 23 34 1002.6 - 5.8
30/01:30am 12.3 3.2 7.0 70 2.5 W 44 70 24 38 1002.0 - 5.8
30/01:04am 12.6 3.9 7.9 73 2.3 W 43 61 23 33 1001.7 - 5.8
30/01:00am 12.5 3.6 7.6 72 2.4 W 44 61 24 33 1001.7 - 5.8
30/12:30am 12.9 3.7 8.0 72 2.4 W 46 65 25 35 1001.2 - 5.8
30/12:00am 12.6 3.8 8.1 74 2.2 W 44 63 24 34 1001.0 1001.0 5.8
 
Date/Time
EST
Temp
°C
App
Temp
°C
Dew
Point
Rel
Hum
%
Delta-T
°C
Wind Press
QNH
hPa
Press
MSL
hPa
Rain
since 9 am
mm
Dir
 
Spd
km/h
Gust
km/h
Spd
kts
Gust
kts
29/11:30pm 13.0 3.8 7.9 71 2.5 W 46 65 25 35 1000.6 - 5.8
29/11:05pm 12.9 2.8 7.6 70 2.6 W 50 69 27 37 1000.4 - 5.8
29/11:00pm 12.9 3.2 7.6 70 2.6 W 48 63 26 34 1000.5 - 5.8
29/10:38pm 12.7 3.9 7.4 70 2.6 W 43 69 23 37 1000.1 - 5.8
29/10:36pm 12.4 4.7 7.3 71 2.5 W 37 82 20 44 1000.2 - 5.8
29/10:30pm 12.8 0.9 7.0 68 2.8 W 59 82 32 44 1000.0 - 5.8
29/10:00pm 13.0 2.9 7.5 69 2.7 W 50 74 27 40 999.5 - 5.8
29/09:30pm 12.8 0.0 6.6 66 3.0 W 63 89 34 48 999.3 - 5.8
29/09:00pm 13.0 1.8 7.7 70 2.6 W 56 78 30 42 999.0 999.0 5.8
29/08:30pm 12.9 1.4 6.9 67 2.9 W 57 83 31 45 998.8 - 5.8
29/08:00pm 13.2 -0.3 6.5 64 3.2 W 67 102 36 55 997.8 - 5.8
29/07:52pm 13.2 1.7 7.0 66 3.0 W 57 91 31 49 998.3 - 5.8
29/07:30pm 12.7 3.3 8.6 76 2.0 W 48 69 26 37 997.6 - 5.8
29/07:00pm 12.2 3.7 10.6 90 0.8 W 46 65 25 35 997.9 - 5.8
29/06:30pm 13.5 4.5 10.3 81 1.7 W 48 67 26 36 996.5 - 5.4
29/06:01pm 14.0 4.9 10.0 77 2.1 W 48 69 26 37 996.4 - 5.4
29/06:00pm 13.8 4.8 10.2 79 1.9 W 48 61 26 33 996.4 996.4 5.4
29/05:30pm 13.8 2.5 10.8 82 1.6 WNW 61 91 33 49 995.6 - 5.4
29/05:00pm 13.9 3.4 10.9 82 1.6 WNW 57 83 31 45 995.3 - 5.4
29/04:30pm 13.1 4.7 12.2 94 0.5 W 48 69 26 37 995.1 - 5.4
29/04:00pm 13.2 4.4 12.1 93 0.6 WNW 50 76 27 41 994.6 - 3.0
29/03:30pm 14.4 4.9 11.2 81 1.7 WNW 52 70 28 38 995.1 - 2.0
29/03:00pm 13.7 3.4 11.7 88 1.1 WNW 57 80 31 43 994.6 994.6 2.0
29/02:30pm 14.3 5.5 11.1 81 1.7 WNW 48 69 26 37 994.7 - 1.8
29/02:01pm 13.8 5.5 11.5 86 1.2 WNW 46 65 25 35 995.3 - 1.8
29/02:00pm 13.9 5.3 11.6 86 1.2 WNW 48 65 26 35 995.3 - 1.8
29/01:32pm 13.2 4.7 10.7 85 1.3 WNW 46 65 25 35 995.5 - 1.8
29/01:30pm 13.1 4.6 10.8 86 1.2 WNW 46 63 25 34 995.7 - 1.8
29/01:02pm 13.0 5.3 10.2 83 1.4 WNW 41 61 22 33 996.1 - 1.8
29/01:00pm 13.0 4.9 10.2 83 1.4 WNW 43 59 23 32 996.2 - 1.8
29/12:30pm 12.6 5.1 10.8 89 0.9 WNW 41 59 22 32 996.7 - 1.8
29/12:02pm 12.2 6.1 10.6 90 0.8 W 33 56 18 30 997.1 - 1.6
29/12:00pm 12.0 6.2 10.7 92 0.7 W 32 41 17 22 997.1 997.1 1.6
29/11:36am 11.6 5.1 10.5 93 0.6 W 35 54 19 29 997.5 - 1.0
29/11:30am 11.3 3.7 10.4 94 0.5 W 41 57 22 31 997.6 - 1.0
29/11:20am 11.1 3.8 10.2 94 0.5 W 39 72 21 39 997.7 - 1.0
29/11:19am 11.1 3.0 10.0 93 0.6 W 43 85 23 46 997.6 - 1.0
29/11:10am 11.7 -1.1 9.6 87 1.1 W 67 85 36 46 997.5 - 0.4
29/11:09am 12.0 -0.3 9.9 87 1.1 W 65 78 35 42 997.6 - 0.4
29/11:00am 14.2 6.2 11.0 81 1.7 WNW 44 65 24 35 996.8 - 0.0
29/10:30am 13.9 6.9 11.1 83 1.5 WNW 39 57 21 31 997.1 - 0.0
29/10:23am 13.8 7.2 11.3 85 1.3 NW 37 56 20 30 997.1 - 0.0
29/10:00am 13.8 7.5 11.0 83 1.5 WNW 35 48 19 26 997.6 - 0.0
29/09:40am 14.0 6.0 10.4 79 1.9 WNW 43 61 23 33 997.6 - 0.0
29/09:30am 14.1 5.4 10.1 77 2.1 WNW 46 61 25 33 997.6 - 0.0
29/09:16am 13.9 5.9 10.3 79 1.9 WNW 43 61 23 33 997.8 - 0.0
29/09:00am 13.8 5.7 10.8 82 1.6 WNW 44 59 24 32 997.7 997.7 26.8
29/08:30am 13.7 4.6 11.2 85 1.3 WNW 50 69 27 37 997.6 - 26.8
29/08:00am 13.6 4.7 12.0 90 0.9 WNW 50 69 27 37 997.6 - 26.8
29/07:47am 13.6 5.6 12.3 92 0.7 WNW 46 65 25 35 997.5 - 26.6
29/07:30am 13.3 4.2 12.4 94 0.5 NW 52 65 28 35 997.3 - 26.6
29/07:00am 12.9 6.7 12.7 99 0.1 NW 37 56 20 30 997.2 - 26.6
29/06:59am 12.9 6.7 12.7 99 0.1 NW 37 61 20 33 997.2 - 26.6
29/06:50am 12.4 6.1 12.2 99 0.1 W 37 61 20 33 997.0 - 26.4
29/06:48am 12.7 7.4 12.5 99 0.1 W 32 52 17 28 997.1 - 26.4
29/06:33am 12.9 5.2 12.1 95 0.4 NW 44 69 24 37 997.1 - 18.8
29/06:30am 13.0 5.5 12.2 95 0.4 NW 43 59 23 32 997.6 - 18.0
29/06:00am 12.6 5.5 12.3 98 0.2 NNW 41 63 22 34 997.6 997.6 17.2
29/05:52am 12.7 5.3 12.4 98 0.2 NNW 43 63 23 34 997.9 - 16.2
29/05:46am 12.5 6.2 12.2 98 0.2 NNW 37 46 20 25 997.5 - 15.8
29/05:30am 12.5 6.1 12.0 97 0.3 NW 37 56 20 30 998.3 - 15.4
29/05:04am 12.8 6.9 12.5 98 0.2 NW 35 54 19 29 998.8 - 13.6
29/05:00am 12.2 6.1 11.9 98 0.2 NW 35 54 19 29 998.8 - 13.6
29/04:55am 12.0 4.7 11.5 97 0.3 NW 41 54 22 29 998.9 - 13.6
29/04:51am 12.2 4.5 11.6 96 0.3 W 43 54 23 29 998.8 - 12.2
29/04:30am 12.8 6.4 11.9 94 0.5 NW 37 56 20 30 999.3 - 7.4
29/04:29am 12.8 6.4 11.9 94 0.5 NW 37 56 20 30 999.3 - 7.4
29/04:00am 12.8 5.9 11.5 92 0.7 NW 39 56 21 30 999.7 - 7.2
29/03:46am 12.6 6.5 11.8 95 0.4 NW 35 61 19 33 1000.0 - 7.2
29/03:42am 12.8 2.8 12.0 95 0.4 NW 56 61 30 33 1000.0 - 7.2
29/03:33am 12.5 6.4 11.9 96 0.3 NW 35 56 19 30 1000.0 - 7.0
29/03:30am 12.5 6.8 11.7 95 0.4 NW 33 48 18 26 1000.2 - 6.8
29/03:00am 12.6 7.4 11.7 94 0.5 NNW 30 41 16 22 1000.6 1000.6 6.2
29/02:30am 12.3 6.7 11.4 94 0.5 NNW 32 43 17 23 1001.2 - 6.2
29/02:00am 12.2 5.9 11.1 93 0.6 NNW 35 48 19 26 1001.9 - 6.2
29/01:30am 12.0 6.7 11.2 95 0.4 NNW 30 43 16 23 1002.2 - 6.2
29/01:00am 12.0 4.9 10.9 93 0.6 NNW 39 50 21 27 1002.8 - 6.0
29/12:30am 12.4 6.6 10.8 90 0.8 NNW 32 50 17 27 1003.5 - 5.6
29/12:29am 12.4 6.6 10.8 90 0.8 NNW 32 50 17 27 1003.5 - 5.6
29/12:00am 11.9 7.9 10.6 92 0.7 NW 22 35 12 19 1004.3 1004.3 5.6
 
Date/Time
EST
Temp
°C
App
Temp
°C
Dew
Point
Rel
Hum
%
Delta-T
°C
Wind Press
QNH
hPa
Press
MSL
hPa
Rain
since 9 am
mm
Dir
 
Spd
km/h
Gust
km/h
Spd
kts
Gust
kts
28/11:30pm 11.8 5.3 10.4 91 0.7 NW 35 46 19 25 1004.4 - 5.6
28/11:17pm 12.2 6.8 10.9 92 0.7 NW 30 48 16 26 1004.5 - 5.6
28/11:00pm 11.1 4.9 9.4 89 0.9 WNW 32 46 17 25 1004.9 - 5.6
28/10:50pm 10.5 4.6 9.1 91 0.7 WNW 30 48 16 26 1004.6 - 5.6
28/10:42pm 11.1 4.0 9.7 91 0.7 WNW 37 48 20 26 1005.1 - 4.8
28/10:30pm 11.4 5.1 9.0 85 1.2 WSW 32 44 17 24 1005.1 - 3.0
28/10:00pm 12.4 7.5 10.1 86 1.2 WNW 26 35 14 19 1005.3 - 1.4
28/09:30pm 12.6 8.9 11.5 93 0.6 NW 22 33 12 18 1005.2 - 1.4
28/09:00pm 12.3 9.1 11.2 93 0.6 NW 19 26 10 14 1005.5 1005.5 1.4
28/08:30pm 11.9 9.7 10.8 93 0.6 NW 13 17 7 9 1005.8 - 1.4
28/08:00pm 11.1 9.5 10.3 95 0.4 NW 9 13 5 7 1006.0 - 1.4
28/07:30pm 10.3 10.2 9.4 94 0.4 CALM 0 6 0 3 1006.1 - 1.4
28/07:00pm 10.3 8.5 9.4 94 0.4 NW 9 15 5 8 1006.5 - 1.4
28/06:30pm 10.6 7.3 9.7 94 0.5 WNW 17 24 9 13 1006.5 - 1.4
28/06:00pm 11.4 7.0 10.3 93 0.6 WNW 24 35 13 19 1006.6 1006.6 1.4
28/05:30pm 11.8 5.5 9.7 87 1.1 NW 33 54 18 29 1005.9 - 0.4
28/05:22pm 12.0 5.7 9.6 85 1.2 NW 33 54 18 29 1005.6 - 0.4
28/05:00pm 13.1 6.8 11.2 88 1.0 NW 35 50 19 27 1006.1 - 0.2
28/04:30pm 13.5 7.9 11.6 88 1.0 NNW 32 44 17 24 1005.9 - 0.2
28/04:00pm 13.6 8.4 11.5 87 1.1 NW 30 37 16 20 1006.4 - 0.2
28/03:30pm 14.5 9.4 11.8 84 1.5 NW 30 35 16 19 1006.9 - 0.2
28/03:00pm 14.7 9.2 11.8 83 1.6 NW 32 41 17 22 1006.5 1006.5 0.2
28/02:45pm 15.0 10.5 12.5 85 1.4 WNW 28 46 15 25 1006.7 - 0.2
28/02:30pm 14.0 9.2 11.7 86 1.2 NW 28 35 15 19 1006.8 - 0.2
28/02:00pm 15.6 9.8 10.8 73 2.5 WNW 32 44 17 24 1007.2 - 0.0
28/01:32pm 15.0 9.3 11.2 78 2.0 WNW 32 50 17 27 1007.7 - 0.0
28/01:30pm 14.6 8.1 10.4 76 2.2 WNW 35 50 19 27 1007.8 - 0.0
28/01:00pm 15.5 8.9 11.3 76 2.3 NW 37 50 20 27 1007.9 - 0.0
28/12:32pm 15.9 10.7 11.5 75 2.4 WNW 30 50 16 27 1008.4 - 0.0
28/12:30pm 16.1 11.9 12.3 78 2.1 WNW 26 37 14 20 1008.5 - 0.0
28/12:00pm 14.5 8.7 10.9 79 1.9 WNW 32 44 17 24 1008.8 1008.8 0.0
28/11:30am 14.7 10.4 12.0 84 1.5 WNW 26 41 14 22 1009.1 - 0.0
28/11:00am 14.6 10.9 12.6 88 1.1 NW 24 32 13 17 1009.4 - 0.0
28/10:30am 14.5 10.3 12.5 88 1.1 NW 26 35 14 19 1009.6 - 0.0
28/10:00am 14.6 10.6 13.1 91 0.8 NW 26 41 14 22 1009.6 - 0.0
28/09:30am 13.5 11.6 12.9 96 0.3 NW 15 20 8 11 1009.6 - 0.0
28/09:00am 12.6 10.5 12.3 98 0.2 NW 15 20 8 11 1009.8 1009.8 10.8
28/08:30am 11.6 9.6 11.4 99 0.1 NW 13 17 7 9 1010.0 - 10.8
28/08:00am 11.2 9.0 10.9 98 0.2 NW 13 17 7 9 1010.1 - 10.8
28/07:30am 11.4 8.0 10.6 95 0.4 NW 19 24 10 13 1010.1 - 10.8
28/07:00am 12.1 8.0 11.5 96 0.3 NW 24 39 13 21 1010.3 - 10.8
28/06:30am 12.0 7.1 11.2 95 0.4 W 28 52 15 28 1010.2 - 10.6
28/06:24am 12.2 6.3 11.3 94 0.5 W 33 52 18 28 1010.0 - 10.6
28/06:21am 12.3 6.1 11.5 95 0.4 W 35 52 19 28 1009.8 - 10.6
28/06:00am 11.2 7.2 10.4 95 0.4 WNW 22 33 12 18 1010.0 1010.0 6.8
28/05:30am 13.1 8.6 11.5 90 0.8 NW 26 37 14 20 1009.9 - 0.0
28/05:00am 13.0 8.4 11.2 89 0.9 NW 26 35 14 19 1010.0 - 0.0
28/04:30am 12.8 8.2 10.9 88 1.0 NNW 26 35 14 19 1010.0 - 0.0
28/04:00am 13.1 9.2 10.8 86 1.2 NW 22 32 12 17 1010.6 - 0.0
28/03:30am 13.0 8.7 10.9 87 1.1 NW 24 33 13 18 1010.8 - 0.0
28/03:00am 12.7 9.1 10.6 87 1.1 NW 20 26 11 14 1011.2 1011.2 0.0
28/02:30am 12.7 9.1 10.4 86 1.2 NW 20 26 11 14 1011.6 - 0.0
28/02:00am 12.9 9.3 10.4 85 1.3 NW 20 28 11 15 1011.9 - 0.0
28/01:30am 12.8 9.2 10.5 86 1.2 NW 20 28 11 15 1012.1 - 0.0
28/01:00am 12.7 9.0 10.2 85 1.3 NW 20 28 11 15 1012.3 - 0.0
28/12:30am 12.6 9.1 10.3 86 1.2 NW 19 26 10 14 1012.8 - 0.0
28/12:00am 12.4 8.8 10.6 89 0.9 NNW 20 28 11 15 1013.1 1013.1 0.0
 
Date/Time
EST
Temp
°C
App
Temp
°C
Dew
Point
Rel
Hum
%
Delta-T
°C
Wind Press
QNH
hPa
Press
MSL
hPa
Rain
since 9 am
mm
Dir
 
Spd
km/h
Gust
km/h
Spd
kts
Gust
kts
27/11:30pm 12.3 9.0 10.9 91 0.7 NW 19 26 10 14 1013.6 - 0.0
27/11:00pm 11.8 8.7 10.4 91 0.7 NNW 17 20 9 11 1013.8 - 0.0
27/10:30pm 12.5 9.2 10.9 90 0.8 NW 19 24 10 13 1014.3 - 0.0
27/10:00pm 12.5 9.2 10.9 90 0.8 NW 19 26 10 14 1014.5 - 0.0
27/09:30pm 12.8 9.3 10.9 88 1.0 NNW 20 28 11 15 1014.5 - 0.0
27/09:00pm 12.3 9.8 11.0 92 0.7 NNW 15 20 8 11 1014.8 1014.8 0.0

Other Formats:

Comma delimited format used in spreadsheet applications
http://www.bom.gov.au/fwo/IDT60801/IDT60801.94953.axf

JavaScript Object Notation format (JSON) in row-major order
http://www.bom.gov.au/fwo/IDT60801/IDT60801.94953.json